KTIX/TIX METAR and TAF weather

Enter ICAO airport designator
Station Type Date Time Source
KTIX METAR 2019/04/18 14:49 UTC NOAA

KTIX 181449Z 17016KT 7SM BKN037 27/17 A3004


Station Type Date Time Source
KTIX Decoded METAR 2019/04/18 14:49 UTC NOAA

Titusville, FL, United States (KTIX) 28-31N 080-48W
Apr 18, 2019 - 10:49 AM EDT / 2019.04.18 1449 UTC
Wind: from the S (170 degrees) at 18 MPH (16 KT):0
Visibility: 7 mile(s):0
Sky conditions: mostly cloudy
Temperature: 80 F (27 C)
Dew Point: 62 F (17 C)
Relative Humidity: 54%
Pressure (altimeter): 30.04 in. Hg (1017 hPa)
ob: KTIX 181449Z 17016KT 7SM BKN037 27/17 A3004
cycle: 15

Station Type Date Time Source
KTIX TAF 2019/04/18 12:27 UTC NOAA

TAF KTIX 181123Z 1812/1912 14006KT P6SM SCT035
FM181400 14010KT P6SM SCT040 SCT250
FM181800 15012G20KT P6SM SCT040 SCT070
FM190000 14010KT P6SM FEW040 SCT070

Example: see airport list